Time;durP1;ratioP1;P1;durP2;ratioP2;P2;SDS_P1;SDS_P2;PMS_P1;PMS_P2;Temp;Humidity;BMP_temperature;BMP_pressure;BME280_temperature;BME280_humidity;BME280_pressure;Samples;Min_cycle;Max_cycle;Signal;HPM_P1;HPM_P2
2021/06/09 00:01:16;;;;;;;6.20;5.60;;;20.70;75.00;;;21.31;100.00;100820.06;5068791;28;20490;-60
2021/06/09 00:04:28;;;;;;;6.90;5.82;;;20.60;75.20;;;21.27;100.00;100816.06;5068918;28;20605;-60
2021/06/09 00:07:39;;;;;;;7.88;5.85;;;20.60;75.70;;;21.22;100.00;100815.06;5069794;28;20652;-61
2021/06/09 00:10:55;;;;;;;7.25;6.50;;;20.50;75.80;;;21.22;100.00;100823.22;5068922;28;20945;-60
2021/06/09 00:14:06;;;;;;;6.82;6.13;;;20.50;76.10;;;21.13;100.00;100828.88;5069510;28;20221;-61
2021/06/09 00:17:19;;;;;;;5.80;5.32;;;20.50;76.30;;;21.05;100.00;100825.53;5066254;28;20216;-61
2021/06/09 00:20:34;;;;;;;6.32;5.82;;;20.40;76.80;;;21.06;100.00;100828.06;5069918;28;20434;-60
2021/06/09 00:23:45;;;;;;;6.22;5.57;;;20.40;77.00;;;20.95;100.00;100827.88;5068836;28;20420;-60
2021/06/09 00:26:56;;;;;;;6.75;6.00;;;20.30;77.50;;;20.95;100.00;100833.31;5068347;28;20869;-61
2021/06/09 00:30:08;;;;;;;6.28;5.68;;;20.30;77.50;;;20.91;100.00;100835.63;5050088;28;20247;-61
2021/06/09 00:33:22;;;;;;;6.38;5.45;;;20.30;78.00;;;20.89;100.00;100836.91;5069044;28;20394;-59
2021/06/09 00:36:33;;;;;;;5.82;5.32;;;20.20;78.10;;;20.92;100.00;100837.28;5048645;28;20478;-61
2021/06/09 00:39:44;;;;;;;5.05;4.57;;;20.20;78.10;;;20.93;100.00;100836.25;5053133;28;20551;-61
2021/06/09 00:43:01;;;;;;;5.80;4.90;;;20.20;78.30;;;20.80;100.00;100839.00;5068857;28;20663;-61
2021/06/09 00:46:15;;;;;;;4.25;3.90;;;20.20;78.50;;;20.77;100.00;100834.81;5056347;28;20674;-60
2021/06/09 00:49:28;;;;;;;4.88;4.47;;;20.10;78.30;;;20.74;100.00;100837.97;5068665;28;20276;-61
2021/06/09 00:52:40;;;;;;;4.50;4.10;;;20.10;78.20;;;20.69;100.00;100835.03;5068870;28;20536;-61
2021/06/09 00:55:52;;;;;;;4.63;4.20;;;20.10;78.50;;;20.70;100.00;100844.03;5066884;28;20616;-61
2021/06/09 00:59:04;;;;;;;6.18;4.75;;;20.00;78.50;;;20.72;100.00;100839.22;5063820;28;20223;-61
2021/06/09 01:02:15;;;;;;;4.35;3.95;;;20.00;78.60;;;20.71;100.00;100841.09;5065810;28;20459;-60
2021/06/09 01:05:28;;;;;;;4.95;4.43;;;20.00;78.60;;;20.68;100.00;100841.50;5068187;28;20319;-61
2021/06/09 01:08:39;;;;;;;4.88;4.47;;;20.00;78.80;;;20.61;100.00;100840.69;5067389;28;20690;-60
2021/06/09 01:11:51;;;;;;;5.30;4.43;;;19.90;79.10;;;20.59;100.00;100840.06;5048011;28;20357;-60
2021/06/09 01:18:32;;;;;;;6.13;4.88;;;19.90;79.90;;;20.55;100.00;100838.81;5060799;28;20399;-60
2021/06/09 01:22:00;;;;;;;4.25;3.85;;;19.80;80.10;;;20.48;100.00;100837.97;5067814;28;20220;-60
2021/06/09 01:25:13;;;;;;;4.78;3.85;;;19.80;80.20;;;20.45;100.00;100843.84;5068387;28;20250;-58
2021/06/09 01:28:24;;;;;;;7.97;4.50;;;19.80;80.60;;;20.41;100.00;100837.97;5067453;28;20393;-61
2021/06/09 01:31:36;;;;;;;5.15;4.50;;;19.80;80.80;;;20.42;100.00;100849.69;5052359;28;20603;-61
2021/06/09 01:34:47;;;;;;;4.78;4.30;;;19.70;81.10;;;20.31;100.00;100842.13;5061344;28;20460;-60
2021/06/09 01:38:00;;;;;;;4.60;4.20;;;19.70;81.60;;;20.27;100.00;100839.00;5067564;28;20487;-60
2021/06/09 01:41:12;;;;;;;4.82;4.05;;;19.60;81.70;;;20.24;100.00;100831.25;5068478;28;20498;-60
2021/06/09 01:44:23;;;;;;;4.47;4.15;;;19.60;82.20;;;20.21;100.00;100831.66;5068002;28;20698;-60
2021/06/09 01:47:35;;;;;;;5.95;4.20;;;19.60;82.40;;;20.21;100.00;100823.50;5070195;28;21159;-60
2021/06/09 01:50:46;;;;;;;4.40;4.00;;;19.50;82.40;;;20.24;100.00;100833.97;5060651;28;20315;-59
2021/06/09 01:53:59;;;;;;;4.50;4.10;;;19.50;82.60;;;20.14;100.00;100833.56;5067873;28;20633;-60
2021/06/09 01:57:11;;;;;;;4.57;4.10;;;19.40;83.00;;;20.13;100.00;100834.59;5060831;28;20204;-60
2021/06/09 02:00:26;;;;;;;4.40;4.00;;;19.40;83.30;;;20.11;100.00;100844.00;5068105;28;20702;-59
2021/06/09 02:03:37;;;;;;;5.07;3.85;;;19.40;84.00;;;20.11;100.00;100844.00;5059838;28;20460;-61
2021/06/09 02:06:48;;;;;;;4.53;4.13;;;19.40;84.00;;;20.04;100.00;100846.69;5048592;28;20201;-61
2021/06/09 02:10:02;;;;;;;5.93;3.95;;;19.30;84.00;;;19.98;100.00;100848.34;5046490;28;20872;-61
2021/06/09 02:13:16;;;;;;;4.55;3.95;;;19.30;83.90;;;20.01;100.00;100853.38;5067887;28;20791;-61
2021/06/09 02:16:28;;;;;;;5.50;4.20;;;19.30;84.00;;;19.99;100.00;100851.91;5071110;28;20204;-59
2021/06/09 02:19:41;;;;;;;4.65;3.63;;;19.20;84.00;;;19.94;100.00;100848.97;5070753;28;20312;-59
2021/06/09 02:22:53;;;;;;;3.90;3.53;;;19.20;84.00;;;19.96;100.00;100855.03;5070195;28;20236;-59
2021/06/09 02:26:09;;;;;;;4.85;3.83;;;19.30;84.40;;;19.98;100.00;100853.78;5070563;28;20212;-61
2021/06/09 02:29:21;;;;;;;4.35;4.05;;;19.30;84.30;;;19.97;100.00;100848.56;5070849;28;20293;-59
2021/06/09 02:32:35;;;;;;;5.00;4.22;;;19.30;84.50;;;19.93;100.00;100844.56;5070003;28;20236;-58
2021/06/09 02:35:47;;;;;;;3.80;3.50;;;19.20;84.40;;;19.87;100.00;100846.25;5065883;28;20569;-60
2021/06/09 02:38:59;;;;;;;3.97;3.58;;;19.20;84.60;;;19.91;100.00;100846.66;5070948;28;20242;-60
2021/06/09 02:42:13;;;;;;;3.85;3.50;;;19.20;84.80;;;19.85;100.00;100848.31;5046575;28;20225;-59
2021/06/09 02:45:26;;;;;;;4.10;3.70;;;19.20;84.90;;;19.87;100.00;100854.41;5052843;28;20209;-60
2021/06/09 02:48:42;;;;;;;3.67;3.13;;;19.20;84.90;;;19.97;100.00;100860.25;5070641;28;20216;-60
2021/06/09 02:51:56;;;;;;;4.05;3.70;;;19.20;85.10;;;20.09;100.00;100865.94;5050370;28;20220;-60
2021/06/09 02:55:15;;;;;;;4.47;3.30;;;19.20;85.00;;;20.23;100.00;100872.22;5064350;28;20265;-59
2021/06/09 02:58:33;;;;;;;3.70;3.40;;;19.30;86.20;;;20.19;100.00;100882.66;5068517;28;20602;-60
2021/06/09 03:05:41;;;;;;;3.75;3.25;;;19.40;85.40;;;20.15;100.00;100875.16;5064751;28;20531;-60
2021/06/09 03:09:04;;;;;;;4.07;3.42;;;19.40;85.30;;;20.07;100.00;100878.88;5070387;28;20669;-59
2021/06/09 03:12:27;;;;;;;6.03;3.35;;;19.50;87.50;;;19.83;100.00;100868.56;5047213;28;20951;-57
2021/06/09 03:15:59;;;;;;;3.97;3.38;;;19.50;89.40;;;19.53;100.00;100860.75;5053892;28;20457;-59
2021/06/09 03:19:19;;;;;;;4.30;3.72;;;19.40;90.90;;;19.42;100.00;100860.44;5069890;27;20216;-58
2021/06/09 03:22:39;;;;;;;4.97;3.83;;;19.20;92.20;;;19.19;100.00;100856.16;5069702;28;20334;-61
2021/06/09 03:25:57;;;;;;;4.03;3.47;;;19.00;94.20;;;19.02;100.00;100852.13;5070016;28;20281;-60
2021/06/09 03:29:17;;;;;;;4.45;4.00;;;18.70;95.90;;;18.91;100.00;100848.09;5065549;28;20228;-61
2021/06/09 03:32:36;;;;;;;4.28;3.65;;;18.40;97.50;;;18.87;100.00;100841.38;5068154;28;20327;-61
2021/06/09 03:35:52;;;;;;;4.22;3.83;;;18.10;98.90;;;18.91;100.00;100839.13;5070075;28;20537;-61
2021/06/09 03:39:12;;;;;;;4.78;3.95;;;18.00;99.40;;;18.85;100.00;100835.31;5049487;28;21109;-61
2021/06/09 03:42:29;;;;;;;4.35;3.95;;;17.80;99.90;;;18.89;100.00;100833.88;5060243;28;20642;-60
2021/06/09 03:45:42;;;;;;;5.25;3.83;;;17.70;99.90;;;18.86;100.00;100844.28;5070066;28;20209;-61
2021/06/09 03:49:05;;;;;;;3.95;3.38;;;17.60;99.90;;;18.95;100.00;100849.34;5070152;28;20508;-61
2021/06/09 03:52:18;;;;;;;4.15;3.70;;;17.60;99.90;;;19.04;100.00;100850.00;5067009;28;20537;-61
2021/06/09 03:55:44;;;;;;;3.78;3.17;;;17.50;99.90;;;19.18;100.00;100849.06;5070395;28;20569;-61
2021/06/09 03:58:56;;;;;;;3.13;2.80;;;17.50;99.90;;;19.34;100.00;100856.03;5069119;28;20366;-61
2021/06/09 04:02:08;;;;;;;3.55;3.20;;;17.60;99.90;;;19.40;100.00;100857.97;5069001;28;20443;-61
2021/06/09 04:05:28;;;;;;;3.55;3.25;;;17.70;99.50;;;19.36;100.00;100854.81;5069999;28;20322;-61
2021/06/09 04:08:40;;;;;;;3.72;2.65;;;17.80;98.80;;;19.51;100.00;100853.84;5069384;28;20233;-61
2021/06/09 04:11:53;;;;;;;3.10;2.80;;;17.90;98.50;;;19.40;100.00;100857.97;5069527;28;20672;-61
2021/06/09 04:15:08;;;;;;;2.92;2.72;;;18.00;98.00;;;19.41;100.00;100856.88;5049753;28;20225;-62
2021/06/09 04:18:25;;;;;;;3.53;3.10;;;18.10;98.20;;;19.52;100.00;100863.69;5061807;28;20244;-61
2021/06/09 04:21:39;;;;;;;3.78;3.28;;;18.20;98.20;;;19.49;100.00;100858.66;5063137;28;20223;-60
2021/06/09 04:24:50;;;;;;;3.97;3.17;;;18.30;98.10;;;19.39;100.00;100853.56;5069568;28;20208;-61
2021/06/09 04:28:05;;;;;;;3.30;2.80;;;18.40;97.40;;;19.37;100.00;100861.06;5068623;28;20741;-61
2021/06/09 04:31:19;;;;;;;4.05;3.10;;;18.40;96.70;;;19.44;100.00;100859.22;5066104;28;20902;-61
2021/06/09 04:34:30;;;;;;;3.50;3.00;;;18.50;96.80;;;19.51;100.00;100851.13;5067854;28;20555;-61
2021/06/09 04:37:45;;;;;;;4.28;3.10;;;18.60;96.20;;;19.44;100.00;100847.50;5065241;28;20589;-60
2021/06/09 04:40:57;;;;;;;3.42;3.00;;;18.60;96.20;;;19.76;100.00;100851.44;5065876;28;20554;-60
2021/06/09 04:44:09;;;;;;;3.50;3.00;;;18.70;96.10;;;19.92;100.00;100837.47;5064795;28;20839;-60
2021/06/09 04:47:21;;;;;;;3.38;2.90;;;18.80;95.90;;;19.80;100.00;100839.94;5065677;28;20598;-61
2021/06/09 04:50:35;;;;;;;4.05;3.13;;;18.90;95.90;;;20.16;100.00;100836.88;5065557;28;20601;-60
2021/06/09 04:53:48;;;;;;;5.25;3.33;;;19.00;96.00;;;20.34;100.00;100837.13;5065976;28;20256;-60
2021/06/09 04:57:00;;;;;;;4.85;3.33;;;19.20;95.90;;;20.21;100.00;100833.53;5066346;28;20271;-61
2021/06/09 05:00:11;;;;;;;3.90;3.10;;;19.30;95.50;;;20.12;100.00;100841.06;5069296;28;21168;-60
2021/06/09 05:03:46;;;;;;;5.22;3.30;;;19.40;95.70;;;20.42;100.00;100833.38;5068109;28;20401;-60
2021/06/09 05:07:04;;;;;;;3.47;3.17;;;19.50;95.40;;;20.94;100.00;100829.75;4946125;28;20503;-60
2021/06/09 05:10:17;;;;;;;4.72;2.90;;;19.60;95.30;;;21.50;100.00;100834.66;4954570;28;20339;-59
2021/06/09 05:13:45;;;;;;;6.40;2.75;;;19.80;95.30;;;21.66;100.00;100828.69;4964031;28;20430;-62
2021/06/09 05:17:05;;;;;;;2.03;1.92;;;20.10;93.90;;;21.61;100.00;100828.50;5019058;28;20524;-58
2021/06/09 05:20:18;;;;;;;4.18;2.60;;;20.40;91.70;;;21.72;100.00;100837.88;5057344;28;20510;-59
2021/06/09 05:23:35;;;;;;;3.88;2.40;;;20.70;90.00;;;21.81;100.00;100840.13;5067561;28;20584;-59
2021/06/09 05:26:51;;;;;;;2.33;1.80;;;21.00;87.70;;;21.55;100.00;100842.97;5068350;28;20216;-59
2021/06/09 05:30:03;;;;;;;4.60;1.90;;;21.30;84.10;;;21.99;100.00;100841.31;5068179;28;20429;-60
2021/06/09 05:33:15;;;;;;;3.22;1.60;;;21.60;78.00;;;21.89;100.00;100849.91;5065838;28;21012;-60
2021/06/09 05:36:27;;;;;;;2.63;1.80;;;21.70;72.90;;;21.86;100.00;100853.09;5067806;28;20361;-60
2021/06/09 05:39:41;;;;;;;3.17;1.80;;;21.90;72.90;;;22.33;100.00;100851.78;5060006;28;20940;-60
2021/06/09 05:42:55;;;;;;;2.45;1.60;;;22.10;70.30;;;22.15;100.00;100851.69;5070608;28;20240;-60
2021/06/09 05:46:07;;;;;;;6.05;1.80;;;22.30;68.40;;;21.50;100.00;100850.97;5063365;28;20212;-60
2021/06/09 05:49:18;;;;;;;1.58;1.40;;;22.40;66.00;;;21.41;100.00;100841.38;5069212;28;20566;-60
2021/06/09 05:52:29;;;;;;;2.22;1.45;;;22.30;65.20;;;21.74;100.00;100850.25;5071085;28;20251;-60
2021/06/09 05:55:43;;;;;;;1.95;1.20;;;22.30;63.60;;;21.75;100.00;100851.06;5071772;28;21001;-60
2021/06/09 05:58:56;;;;;;;3.55;1.50;;;22.30;62.90;;;21.77;100.00;100857.13;5071666;28;20240;-60
2021/06/09 06:02:08;;;;;;;1.65;1.55;;;22.40;61.40;;;21.02;100.00;100853.16;5068432;28;20427;-60
2021/06/09 06:05:35;;;;;;;3.60;1.55;;;22.40;59.60;;;21.02;100.00;100861.34;5068835;28;20215;-60
2021/06/09 06:08:55;;;;;;;3.53;1.50;;;22.30;59.40;;;21.42;100.00;100860.22;5070752;28;20235;-60
2021/06/09 06:12:09;;;;;;;1.65;1.45;;;22.30;60.00;;;22.33;100.00;100861.84;5062743;28;20215;-60
2021/06/09 06:15:22;;;;;;;1.48;1.35;;;22.30;60.10;;;22.02;100.00;100862.66;5071339;28;20223;-60
2021/06/09 06:18:39;;;;;;;1.08;1.02;;;22.50;58.80;;;21.90;100.00;100861.66;5070358;28;20442;-61
2021/06/09 06:21:50;;;;;;;1.30;1.20;;;22.60;57.10;;;22.28;100.00;100870.66;5070878;28;20251;-60
2021/06/09 06:25:05;;;;;;;2.03;1.30;;;22.70;56.20;;;22.62;100.00;100865.81;5070858;28;20589;-60
2021/06/09 06:28:17;;;;;;;1.45;1.33;;;22.80;56.20;;;22.41;100.00;100870.56;5053684;28;20221;-61
2021/06/09 06:31:34;;;;;;;1.10;1.10;;;23.10;55.20;;;21.70;100.00;100869.94;5070835;28;20706;-59
2021/06/09 06:34:49;;;;;;;1.88;1.15;;;23.20;53.30;;;21.50;100.00;100868.16;5070291;28;20204;-60
2021/06/09 06:38:01;;;;;;;1.67;1.25;;;23.10;51.90;;;21.83;100.00;100875.31;5051696;28;20499;-58
2021/06/09 06:41:24;;;;;;;1.60;1.50;;;23.00;53.10;;;21.97;100.00;100873.38;5070169;28;20227;-60
2021/06/09 06:44:36;;;;;;;2.20;1.60;;;23.00;54.00;;;21.29;100.00;100868.41;5061796;28;20355;-61
2021/06/09 06:47:58;;;;;;;3.00;1.50;;;23.00;53.70;;;22.56;100.00;100867.53;5070831;28;20584;-60
2021/06/09 06:51:16;;;;;;;2.35;1.50;;;23.00;54.60;;;22.74;100.00;100864.03;5070955;28;20574;-61
2021/06/09 06:54:27;;;;;;;2.72;1.38;;;23.10;55.00;;;22.44;100.00;100872.03;5068996;28;20204;-61
2021/06/09 06:57:39;;;;;;;6.45;1.85;;;23.30;54.40;;;22.95;100.00;100873.72;5068565;28;20228;-62
2021/06/09 07:00:52;;;;;;;3.63;1.90;;;23.40;54.20;;;23.64;100.00;100876.94;5070493;28;20216;-61
2021/06/09 07:04:06;;;;;;;3.50;1.60;;;23.60;54.00;;;23.22;100.00;100873.22;5066126;28;20410;-61
2021/06/09 07:07:18;;;;;;;5.28;1.70;;;23.90;53.40;;;24.13;100.00;100879.63;5067322;28;20247;-61
2021/06/09 07:10:32;;;;;;;3.92;1.70;;;24.20;53.30;;;24.36;100.00;100879.72;5069893;28;20243;-61
2021/06/09 07:13:43;;;;;;;4.63;1.50;;;24.50;52.80;;;22.40;100.00;100878.97;5069444;28;20555;-61
2021/06/09 07:16:56;;;;;;;7.65;1.77;;;24.80;49.70;;;24.07;100.00;100880.56;5069721;28;20749;-61
2021/06/09 07:20:48;;;;;;;5.90;1.70;;;24.90;50.60;;;24.26;100.00;100879.47;5070074;28;20921;-59
2021/06/09 07:28:05;;;;;;;5.38;1.60;;;25.60;49.10;;;24.01;100.00;100885.06;5007777;28;20487;-61
2021/06/09 07:31:48;;;;;;;3.97;1.70;;;25.80;48.10;;;23.70;100.00;100885.28;5048023;28;20274;-61
2021/06/09 07:35:11;;;;;;;4.13;1.50;;;26.10;47.50;;;23.63;100.00;100888.09;4991846;28;20246;-61
2021/06/09 07:38:34;;;;;;;4.47;1.23;;;26.30;47.20;;;24.32;100.00;100882.13;5067928;28;20306;-61
2021/06/09 07:41:55;;;;;;;3.75;1.77;;;26.40;46.10;;;23.00;100.00;100885.59;5070235;28;20471;-61
2021/06/09 07:49:13;;;;;;;5.68;1.42;;;26.50;44.20;;;24.63;100.00;100886.44;5041778;28;20460;-61
2021/06/09 07:52:31;;;;;;;3.55;1.08;;;26.80;43.30;;;24.44;100.00;100886.78;5049711;28;20882;-61
2021/06/09 07:59:40;;;;;;;2.00;1.02;;;27.10;41.30;;;24.20;100.00;100881.22;5067111;28;20835;-60
2021/06/09 08:02:52;;;;;;;2.25;1.17;;;27.40;40.60;;;24.65;100.00;100884.31;5068954;28;20305;-61
2021/06/09 08:09:30;;;;;;;1.70;1.17;;;27.80;40.80;;;24.73;100.00;100876.84;5068350;28;20445;-61
2021/06/09 08:12:43;;;;;;;2.70;1.15;;;28.00;40.20;;;25.84;100.00;100878.50;5051068;28;20276;-61
2021/06/09 08:15:54;;;;;;;2.03;1.35;;;28.10;40.10;;;25.28;100.00;100880.03;5043336;28;20231;-61
2021/06/09 08:19:20;;;;;;;1.85;1.20;;;28.40;39.90;;;25.09;100.00;100884.84;5064681;28;20319;-58
2021/06/09 08:22:31;;;;;;;3.95;1.60;;;28.40;39.30;;;25.03;100.00;100886.63;5069240;28;20220;-61
2021/06/09 08:25:44;;;;;;;2.38;1.10;;;28.40;39.30;;;25.45;100.00;100885.63;5068496;28;20533;-60
2021/06/09 08:28:58;;;;;;;1.48;1.15;;;28.30;39.20;;;26.30;100.00;100877.47;5050336;28;20252;-60
2021/06/09 08:32:09;;;;;;;2.75;1.23;;;28.50;39.40;;;26.16;100.00;100887.91;5069532;28;20703;-61
2021/06/09 08:35:23;;;;;;;4.57;1.30;;;28.80;39.60;;;27.38;99.57;100890.72;5077482;28;20557;-62
2021/06/09 08:38:34;;;;;;;3.38;1.45;;;29.20;39.80;;;27.75;91.56;100879.13;5065777;28;20252;-61
2021/06/09 08:41:46;;;;;;;2.47;1.33;;;29.60;38.90;;;26.47;99.82;100881.06;5069225;28;20212;-63
2021/06/09 08:45:00;;;;;;;2.30;1.00;;;29.80;38.00;;;27.69;88.75;100872.75;5068428;28;20220;-61
2021/06/09 08:48:12;;;;;;;2.45;1.02;;;30.00;37.60;;;25.18;100.00;100890.78;5046209;28;20743;-61
2021/06/09 08:51:25;;;;;;;1.80;1.30;;;30.10;36.10;;;24.50;100.00;100888.56;5067736;28;20232;-61
2021/06/09 08:54:37;;;;;;;2.63;1.00;;;29.90;36.20;;;24.72;100.00;100880.63;5062654;28;20547;-62
2021/06/09 08:57:48;;;;;;;2.53;0.80;;;29.70;36.50;;;25.07;100.00;100886.97;5068598;28;20637;-61
2021/06/09 09:01:02;;;;;;;2.25;1.20;;;29.60;36.30;;;26.64;100.00;100881.91;5062106;28;20212;-61
2021/06/09 09:04:14;;;;;;;0.52;0.40;;;29.50;36.60;;;26.97;82.98;100875.56;5063554;28;20717;-62
2021/06/09 09:07:28;;;;;;;1.73;1.10;;;29.60;36.10;;;27.49;83.04;100875.19;5067914;28;20557;-61
2021/06/09 09:10:54;;;;;;;1.67;0.73;;;29.80;36.10;;;27.79;77.18;100877.53;5068355;28;20956;-62
2021/06/09 09:14:06;;;;;;;1.30;0.90;;;30.10;35.60;;;28.03;78.18;100883.56;5064375;28;20386;-61
2021/06/09 09:17:36;;;;;;;2.13;0.60;;;30.40;35.10;;;27.83;71.61;100882.22;5062962;28;20216;-62
2021/06/09 09:20:50;;;;;;;0.93;0.70;;;30.80;34.70;;;25.31;88.25;100883.16;5062067;28;20208;-62
2021/06/09 09:24:09;;;;;;;1.95;1.10;;;30.80;32.70;;;26.64;83.26;100881.91;5068162;28;20537;-62
2021/06/09 09:27:28;;;;;;;1.15;0.70;;;30.80;32.80;;;27.06;79.17;100887.00;5046176;28;20591;-61
2021/06/09 09:30:46;;;;;;;1.10;0.88;;;30.90;33.30;;;26.63;79.47;100882.16;5057654;28;20224;-62
2021/06/09 09:33:59;;;;;;;3.47;1.00;;;31.00;32.80;;;27.48;78.61;100885.34;5068304;28;20258;-61
2021/06/09 09:37:30;;;;;;;1.27;0.80;;;31.10;32.80;;;27.14;78.47;100883.78;5068345;28;20236;-61
2021/06/09 09:40:43;;;;;;;3.80;0.70;;;31.20;32.60;;;27.90;77.96;100879.31;5068309;28;20610;-62
2021/06/09 09:44:17;;;;;;;1.75;0.80;;;31.40;32.50;;;27.28;78.24;100885.09;5067340;28;20324;-62
2021/06/09 09:47:48;;;;;;;1.30;0.93;;;31.60;32.60;;;28.25;76.15;100887.13;5032774;28;21048;-62
2021/06/09 09:51:26;;;;;;;4.20;0.93;;;31.80;32.00;;;28.89;72.06;100887.13;5062935;28;20219;-62
2021/06/09 09:54:43;;;;;;;2.65;0.75;;;32.10;32.30;;;27.30;78.89;100871.94;5040064;28;20576;-62
2021/06/09 09:57:59;;;;;;;1.27;1.00;;;32.20;31.20;;;28.37;72.46;100881.44;5030232;28;20846;-62
2021/06/09 10:01:16;;;;;;;2.08;0.77;;;32.30;31.50;;;28.03;81.04;100875.31;5049555;28;20551;-61
2021/06/09 10:04:29;;;;;;;1.98;1.13;;;32.40;31.30;;;28.97;79.03;100870.09;5048045;28;20706;-61
2021/06/09 10:08:00;;;;;;;1.92;0.95;;;32.60;31.70;;;26.40;84.76;100866.69;5067500;28;20228;-61
2021/06/09 10:11:37;;;;;;;1.45;0.70;;;32.60;30.40;;;25.95;89.22;100878.47;5067764;28;20290;-62
2021/06/09 10:22:28;;;;;;;2.70;0.75;;;32.60;30.90;;;29.81;69.99;100849.84;5062040;28;20514;-62
2021/06/09 10:25:47;;;;;;;2.67;0.77;;;33.00;31.30;;;29.50;65.03;100857.19;5059754;28;20873;-62
2021/06/09 10:32:37;;;;;;;2.47;0.85;;;33.30;30.30;;;28.25;73.81;100848.59;5069950;28;20877;-61
2021/06/09 10:35:52;;;;;;;1.88;0.90;;;33.50;29.80;;;29.93;67.22;100845.72;5070906;28;20212;-62
2021/06/09 10:39:03;;;;;;;1.25;0.70;;;33.40;30.20;;;29.58;72.02;100842.88;5070357;28;20574;-62
2021/06/09 10:42:19;;;;;;;1.40;0.80;;;33.50;31.00;;;29.77;66.35;100835.78;5063907;28;20268;-61
2021/06/09 10:45:35;;;;;;;3.28;0.90;;;33.70;30.20;;;30.30;64.99;100837.25;5070647;28;20223;-62
2021/06/09 10:52:06;;;;;;;1.95;0.88;;;34.40;29.40;;;29.83;64.36;100837.44;5069859;28;20428;-63
2021/06/09 10:55:21;;;;;;;2.08;0.88;;;34.60;29.10;;;29.22;67.96;100828.09;5070469;28;20593;-61
2021/06/09 10:58:45;;;;;;;0.70;0.70;;;34.90;28.90;;;28.49;70.28;100821.53;5040122;28;20721;-62
2021/06/09 11:02:06;;;;;;;1.08;0.70;;;34.90;28.50;;;27.93;73.65;100823.78;5073536;28;20500;-62
2021/06/09 11:05:20;;;;;;;2.00;0.70;;;35.10;28.20;;;26.91;83.19;100818.06;5070182;28;20216;-61
2021/06/09 11:08:33;;;;;;;1.45;0.82;;;35.00;27.60;;;29.16;65.30;100812.66;5049768;28;20365;-62
2021/06/09 11:12:05;;;;;;;1.58;0.73;;;34.80;28.00;;;26.32;76.54;100817.72;5069846;28;20665;-62
2021/06/09 11:15:31;;;;;;;0.82;0.60;;;34.90;27.20;;;27.69;75.89;100815.00;5070237;28;20970;-62
2021/06/09 11:18:52;;;;;;;1.55;0.90;;;34.60;27.50;;;29.17;64.61;100798.59;5043826;28;20323;-62
2021/06/09 11:22:04;;;;;;;0.75;0.65;;;34.70;28.00;;;29.37;72.16;100799.78;5070093;28;20261;-61
2021/06/09 11:25:40;;;;;;;0.50;0.50;;;34.80;28.50;;;28.59;68.10;100803.19;5069783;28;20335;-62
2021/06/09 11:29:01;;;;;;;1.05;0.77;;;34.90;28.30;;;27.97;76.90;100791.91;5036474;28;20686;-62
2021/06/09 11:32:40;;;;;;;0.90;0.60;;;35.00;27.80;;;29.52;62.92;100789.66;5069286;28;20236;-61
2021/06/09 11:36:08;;;;;;;0.50;0.50;;;34.90;28.30;;;30.60;55.40;100796.97;5070286;28;20976;-62
2021/06/09 11:39:29;;;;;;;3.88;0.80;;;35.20;28.10;;;30.80;54.85;100782.25;5068811;27;20232;-62
2021/06/09 11:42:39;;;;;;;1.50;0.77;;;35.60;27.50;;;31.19;51.53;100785.22;5050212;28;20550;-62
2021/06/09 11:45:53;;;;;;;2.05;0.70;;;35.90;27.40;;;30.82;52.15;100777.28;5061518;28;20744;-62
2021/06/09 11:49:11;;;;;;;0.60;0.60;;;36.30;27.10;;;30.96;51.47;100776.44;5069634;28;20698;-62
2021/06/09 11:52:31;;;;;;;1.50;0.60;;;36.50;26.90;;;31.05;50.02;100771.97;5049439;28;20221;-62
2021/06/09 11:55:51;;;;;;;1.58;0.57;;;36.90;26.40;;;30.65;53.38;100764.66;5053094;28;21067;-62
2021/06/09 11:59:05;;;;;;;0.98;0.52;;;37.30;26.80;;;30.95;45.79;100768.41;5068152;28;20714;-62
2021/06/09 12:02:25;;;;;;;2.95;0.60;;;37.40;26.00;;;30.95;49.16;100773.94;5069205;28;20322;-62
2021/06/09 12:05:46;;;;;;;1.00;0.65;;;37.50;25.80;;;30.85;51.24;100758.22;5069285;28;20322;-62
2021/06/09 12:12:29;;;;;;;1.33;0.80;;;37.70;25.50;;;31.22;50.78;100752.31;5049125;28;20570;-61
2021/06/09 12:15:40;;;;;;;1.33;0.50;;;37.90;25.50;;;31.04;45.42;100744.59;5061699;28;20498;-62
2021/06/09 12:18:54;;;;;;;1.13;0.63;;;38.10;25.10;;;31.33;44.65;100745.63;5069243;28;20224;-60
2021/06/09 12:22:13;;;;;;;1.50;0.70;;;38.20;25.00;;;29.75;52.93;100738.69;5069529;28;20314;-63
2021/06/09 12:25:47;;;;;;;1.33;0.57;;;38.30;24.40;;;30.48;50.03;100744.75;5068824;28;20208;-61
2021/06/09 12:28:58;;;;;;;1.42;0.70;;;38.10;24.60;;;27.99;57.52;100748.47;5067397;28;20270;-59
2021/06/09 12:32:10;;;;;;;0.50;0.50;;;37.90;24.30;;;29.00;54.43;100731.00;5068818;28;20690;-62
2021/06/09 12:35:25;;;;;;;1.17;0.60;;;37.30;24.30;;;30.39;44.82;100732.63;5066886;28;20977;-62
2021/06/09 12:38:54;;;;;;;0.55;0.50;;;37.10;25.10;;;30.34;52.04;100724.34;5060116;28;20215;-62
2021/06/09 12:42:07;;;;;;;1.67;0.70;;;37.10;25.20;;;28.67;55.18;100724.78;5043560;28;20410;-62
2021/06/09 12:45:19;;;;;;;1.70;0.70;;;37.00;24.90;;;30.47;51.54;100717.41;5069255;28;20219;-62
2021/06/09 12:48:32;;;;;;;1.88;0.60;;;37.00;25.20;;;29.36;54.46;100718.16;5068814;28;20250;-62
2021/06/09 12:51:44;;;;;;;0.50;0.35;;;37.00;24.90;;;30.85;49.39;100708.50;5068543;28;20216;-62
2021/06/09 12:55:01;;;;;;;0.80;0.52;;;37.10;25.20;;;30.90;49.62;100711.25;5068924;28;20212;-62
2021/06/09 12:58:19;;;;;;;0.93;0.57;;;37.20;25.10;;;29.64;53.20;100713.03;5048940;28;20253;-62
2021/06/09 13:01:32;;;;;;;1.75;0.77;;;37.20;25.00;;;30.38;52.42;100700.59;5068894;28;20525;-61
2021/06/09 13:05:03;;;;;;;0.75;0.70;;;36.90;25.30;;;30.14;53.20;100702.31;5068989;28;20690;-62
2021/06/09 13:08:25;;;;;;;0.93;0.82;;;36.70;25.60;;;30.36;48.29;100687.06;5045304;28;20549;-60
2021/06/09 13:11:45;;;;;;;0.70;0.60;;;36.60;25.80;;;29.37;52.28;100684.81;5067020;28;20646;-62
2021/06/09 13:18:24;;;;;;;1.00;0.68;;;36.40;25.50;;;28.50;61.54;100683.66;5060852;28;20539;-61
2021/06/09 13:25:03;;;;;;;1.65;0.98;;;36.10;26.10;;;29.98;52.59;100673.88;5063817;28;20564;-62
2021/06/09 13:28:22;;;;;;;1.75;0.70;;;36.10;26.00;;;29.41;52.73;100683.22;5067645;28;20252;-62
2021/06/09 13:31:45;;;;;;;2.50;0.80;;;36.10;25.90;;;28.78;56.79;100685.19;5068094;28;20254;-62
2021/06/09 13:34:57;;;;;;;1.55;0.90;;;35.90;25.50;;;29.29;57.06;100679.84;5068375;28;20216;-62
2021/06/09 13:38:14;;;;;;;1.60;0.77;;;35.50;25.90;;;28.58;60.96;100674.03;5068708;28;20230;-60
2021/06/09 13:41:27;;;;;;;1.45;1.15;;;35.20;26.00;;;29.73;58.83;100665.59;5068358;28;20460;-62
2021/06/09 13:44:59;;;;;;;1.85;0.80;;;35.10;26.70;;;30.49;57.08;100666.34;5067840;28;20251;-61
2021/06/09 13:48:23;;;;;;;0.68;0.68;;;35.20;27.30;;;29.26;54.02;100663.84;5067331;28;20579;-61
2021/06/09 13:51:36;;;;;;;2.03;0.80;;;35.40;26.90;;;30.23;55.01;100656.47;5067795;28;20571;-62
2021/06/09 13:54:57;;;;;;;0.80;0.80;;;35.40;26.90;;;29.77;54.89;100667.53;5067763;28;20780;-62
2021/06/09 13:58:13;;;;;;;1.67;1.10;;;35.10;26.90;;;29.89;57.67;100654.28;5048127;28;20626;-61
2021/06/09 14:01:30;;;;;;;2.20;0.82;;;34.90;27.30;;;30.03;58.07;100653.75;5067575;27;20506;-61
2021/06/09 14:04:53;;;;;;;1.25;1.15;;;34.80;27.90;;;29.87;61.09;100652.91;5070973;28;20703;-60
2021/06/09 14:08:10;;;;;;;0.95;0.93;;;34.80;26.90;;;29.58;61.92;100647.09;5070927;28;20956;-61
2021/06/09 14:11:22;;;;;;;1.25;0.98;;;34.90;27.00;;;28.26;66.89;100645.81;5050828;28;20787;-62
2021/06/09 14:14:40;;;;;;;1.17;0.95;;;35.00;26.60;;;28.98;62.70;100650.56;5050980;28;20943;-61
2021/06/09 14:17:53;;;;;;;1.80;0.80;;;34.90;27.70;;;29.08;64.14;100651.41;5044119;28;20568;-62